sensor_id;sensor_type;location;lat;lon;timestamp;temperature;humidity
22629;DHT22;11481;53.694;9.910;2022-10-26T00:00:51;13.00;99.90
22629;DHT22;11481;53.694;9.910;2022-10-26T00:03:17;13.00;99.90
22629;DHT22;11481;53.694;9.910;2022-10-26T00:05:44;13.00;99.90
22629;DHT22;11481;53.694;9.910;2022-10-26T00:08:11;12.90;99.90
22629;DHT22;11481;53.694;9.910;2022-10-26T00:10:38;12.90;99.90
22629;DHT22;11481;53.694;9.910;2022-10-26T00:13:07;12.90;99.90
22629;DHT22;11481;53.694;9.910;2022-10-26T00:15:39;12.90;99.90
22629;DHT22;11481;53.694;9.910;2022-10-26T00:18:07;12.90;99.90
22629;DHT22;11481;53.694;9.910;2022-10-26T00:20:34;12.80;99.90
22629;DHT22;11481;53.694;9.910;2022-10-26T00:23:00;12.80;99.90
22629;DHT22;11481;53.694;9.910;2022-10-26T00:25:27;12.80;99.90
22629;DHT22;11481;53.694;9.910;2022-10-26T00:27:53;12.80;99.90
22629;DHT22;11481;53.694;9.910;2022-10-26T00:30:20;12.70;99.90
22629;DHT22;11481;53.694;9.910;2022-10-26T00:32:46;12.70;99.90
22629;DHT22;11481;53.694;9.910;2022-10-26T00:35:13;12.70;99.90
22629;DHT22;11481;53.694;9.910;2022-10-26T00:37:54;12.70;99.90
22629;DHT22;11481;53.694;9.910;2022-10-26T00:40:26;12.80;99.90
22629;DHT22;11481;53.694;9.910;2022-10-26T00:42:54;12.70;99.90
22629;DHT22;11481;53.694;9.910;2022-10-26T00:45:24;12.70;99.90
22629;DHT22;11481;53.694;9.910;2022-10-26T00:48:04;12.80;99.90
22629;DHT22;11481;53.694;9.910;2022-10-26T00:50:36;12.80;99.90
22629;DHT22;11481;53.694;9.910;2022-10-26T00:53:05;12.80;99.90
22629;DHT22;11481;53.694;9.910;2022-10-26T00:55:36;12.80;99.90
22629;DHT22;11481;53.694;9.910;2022-10-26T00:58:05;12.80;99.90
22629;DHT22;11481;53.694;9.910;2022-10-26T01:00:34;12.80;99.90
22629;DHT22;11481;53.694;9.910;2022-10-26T01:03:04;12.80;99.90
22629;DHT22;11481;53.694;9.910;2022-10-26T01:05:33;12.80;99.90
22629;DHT22;11481;53.694;9.910;2022-10-26T01:08:01;12.80;99.90
22629;DHT22;11481;53.694;9.910;2022-10-26T01:10:28;12.80;99.90
22629;DHT22;11481;53.694;9.910;2022-10-26T01:12:55;12.80;99.90
22629;DHT22;11481;53.694;9.910;2022-10-26T01:18:39;12.80;99.90
22629;DHT22;11481;53.694;9.910;2022-10-26T01:21:19;12.80;99.90
22629;DHT22;11481;53.694;9.910;2022-10-26T01:35:31;12.70;99.90
22629;DHT22;11481;53.694;9.910;2022-10-26T01:40:33;12.60;99.90
22629;DHT22;11481;53.694;9.910;2022-10-26T01:43:05;12.60;99.90
22629;DHT22;11481;53.694;9.910;2022-10-26T01:45:34;12.60;99.90
22629;DHT22;11481;53.694;9.910;2022-10-26T01:48:03;12.50;99.90
22629;DHT22;11481;53.694;9.910;2022-10-26T01:50:30;12.50;99.90
22629;DHT22;11481;53.694;9.910;2022-10-26T01:52:57;12.50;99.90
22629;DHT22;11481;53.694;9.910;2022-10-26T02:01:18;12.40;99.90
22629;DHT22;11481;53.694;9.910;2022-10-26T02:04:06;12.40;99.90
22629;DHT22;11481;53.694;9.910;2022-10-26T02:12:10;12.30;99.90
22629;DHT22;11481;53.694;9.910;2022-10-26T02:14:50;12.30;99.90
22629;DHT22;11481;53.694;9.910;2022-10-26T02:17:42;12.30;99.90
22629;DHT22;11481;53.694;9.910;2022-10-26T02:20:20;12.30;99.90
22629;DHT22;11481;53.694;9.910;2022-10-26T02:22:49;12.20;99.90
22629;DHT22;11481;53.694;9.910;2022-10-26T02:25:23;12.20;99.90
22629;DHT22;11481;53.694;9.910;2022-10-26T02:27:56;12.10;99.90
22629;DHT22;11481;53.694;9.910;2022-10-26T02:30:24;12.10;99.90
22629;DHT22;11481;53.694;9.910;2022-10-26T02:32:54;12.00;99.90
22629;DHT22;11481;53.694;9.910;2022-10-26T02:35:27;12.00;99.90
22629;DHT22;11481;53.694;9.910;2022-10-26T02:37:57;12.00;99.90
22629;DHT22;11481;53.694;9.910;2022-10-26T02:40:27;11.90;99.90
22629;DHT22;11481;53.694;9.910;2022-10-26T02:42:58;11.90;99.90
22629;DHT22;11481;53.694;9.910;2022-10-26T02:45:30;11.90;99.90
22629;DHT22;11481;53.694;9.910;2022-10-26T02:47:58;11.80;99.90
22629;DHT22;11481;53.694;9.910;2022-10-26T02:50:31;11.90;99.90
22629;DHT22;11481;53.694;9.910;2022-10-26T02:53:09;11.90;99.90
22629;DHT22;11481;53.694;9.910;2022-10-26T02:55:47;11.80;99.90
22629;DHT22;11481;53.694;9.910;2022-10-26T02:58:21;11.80;99.90
22629;DHT22;11481;53.694;9.910;2022-10-26T03:00:49;11.80;99.90
22629;DHT22;11481;53.694;9.910;2022-10-26T03:03:17;11.90;99.90
22629;DHT22;11481;53.694;9.910;2022-10-26T03:05:44;11.80;99.90
22629;DHT22;11481;53.694;9.910;2022-10-26T03:08:10;11.80;99.90
22629;DHT22;11481;53.694;9.910;2022-10-26T03:10:43;11.80;99.90
22629;DHT22;11481;53.694;9.910;2022-10-26T03:13:11;11.80;99.90
22629;DHT22;11481;53.694;9.910;2022-10-26T03:15:38;11.70;99.90
22629;DHT22;11481;53.694;9.910;2022-10-26T03:18:05;11.70;99.90
22629;DHT22;11481;53.694;9.910;2022-10-26T03:20:32;11.70;99.90
22629;DHT22;11481;53.694;9.910;2022-10-26T03:22:59;11.70;99.90
22629;DHT22;11481;53.694;9.910;2022-10-26T03:25:25;11.60;99.90
22629;DHT22;11481;53.694;9.910;2022-10-26T03:27:59;11.60;99.90
22629;DHT22;11481;53.694;9.910;2022-10-26T03:30:27;11.60;99.90
22629;DHT22;11481;53.694;9.910;2022-10-26T03:32:55;11.50;99.90
22629;DHT22;11481;53.694;9.910;2022-10-26T03:35:23;11.50;99.90
22629;DHT22;11481;53.694;9.910;2022-10-26T03:37:49;11.50;99.90
22629;DHT22;11481;53.694;9.910;2022-10-26T03:40:16;11.50;99.90
22629;DHT22;11481;53.694;9.910;2022-10-26T03:42:47;11.50;99.90
22629;DHT22;11481;53.694;9.910;2022-10-26T03:45:14;11.50;99.90
22629;DHT22;11481;53.694;9.910;2022-10-26T03:47:43;11.50;99.90
22629;DHT22;11481;53.694;9.910;2022-10-26T03:50:11;11.50;99.90
22629;DHT22;11481;53.694;9.910;2022-10-26T03:52:38;11.50;99.90
22629;DHT22;11481;53.694;9.910;2022-10-26T03:55:05;11.40;99.90
22629;DHT22;11481;53.694;9.910;2022-10-26T03:57:32;11.40;99.90
22629;DHT22;11481;53.694;9.910;2022-10-26T03:59:58;11.40;99.90
22629;DHT22;11481;53.694;9.910;2022-10-26T04:02:25;11.40;99.90
22629;DHT22;11481;53.694;9.910;2022-10-26T04:04:51;11.40;99.90
22629;DHT22;11481;53.694;9.910;2022-10-26T04:07:18;11.40;99.90
22629;DHT22;11481;53.694;9.910;2022-10-26T04:09:45;11.40;99.90
22629;DHT22;11481;53.694;9.910;2022-10-26T04:12:11;11.40;99.90
22629;DHT22;11481;53.694;9.910;2022-10-26T04:14:38;11.30;99.90
22629;DHT22;11481;53.694;9.910;2022-10-26T04:17:04;11.30;99.90
22629;DHT22;11481;53.694;9.910;2022-10-26T04:19:31;11.30;99.90
22629;DHT22;11481;53.694;9.910;2022-10-26T04:21:58;11.20;99.90
22629;DHT22;11481;53.694;9.910;2022-10-26T04:24:25;11.20;99.90
22629;DHT22;11481;53.694;9.910;2022-10-26T04:26:51;11.20;99.90
22629;DHT22;11481;53.694;9.910;2022-10-26T04:29:18;11.20;99.90
22629;DHT22;11481;53.694;9.910;2022-10-26T04:31:45;11.20;99.90
22629;DHT22;11481;53.694;9.910;2022-10-26T04:34:11;11.20;99.90
22629;DHT22;11481;53.694;9.910;2022-10-26T04:36:38;11.20;99.90
22629;DHT22;11481;53.694;9.910;2022-10-26T04:39:05;11.10;99.90
22629;DHT22;11481;53.694;9.910;2022-10-26T04:41:31;11.10;99.90
22629;DHT22;11481;53.694;9.910;2022-10-26T04:43:58;11.10;99.90
22629;DHT22;11481;53.694;9.910;2022-10-26T04:46:24;11.10;99.90
22629;DHT22;11481;53.694;9.910;2022-10-26T04:48:51;11.00;99.90
22629;DHT22;11481;53.694;9.910;2022-10-26T04:51:18;11.10;99.90
22629;DHT22;11481;53.694;9.910;2022-10-26T04:53:44;11.00;99.90
22629;DHT22;11481;53.694;9.910;2022-10-26T04:56:12;11.00;99.90
22629;DHT22;11481;53.694;9.910;2022-10-26T04:58:38;11.00;99.90
22629;DHT22;11481;53.694;9.910;2022-10-26T05:01:05;11.00;99.90
22629;DHT22;11481;53.694;9.910;2022-10-26T05:03:32;11.00;99.90
22629;DHT22;11481;53.694;9.910;2022-10-26T05:05:58;11.00;99.90
22629;DHT22;11481;53.694;9.910;2022-10-26T05:08:27;10.90;99.90
22629;DHT22;11481;53.694;9.910;2022-10-26T05:10:54;10.90;99.90
22629;DHT22;11481;53.694;9.910;2022-10-26T05:13:21;10.90;99.90
22629;DHT22;11481;53.694;9.910;2022-10-26T05:15:51;10.90;99.90
22629;DHT22;11481;53.694;9.910;2022-10-26T05:18:17;10.90;99.90
22629;DHT22;11481;53.694;9.910;2022-10-26T05:20:44;10.90;99.90
22629;DHT22;11481;53.694;9.910;2022-10-26T05:23:11;10.90;99.90
22629;DHT22;11481;53.694;9.910;2022-10-26T05:25:38;10.80;99.90
22629;DHT22;11481;53.694;9.910;2022-10-26T05:28:07;10.80;99.90
22629;DHT22;11481;53.694;9.910;2022-10-26T05:30:35;10.80;99.90
22629;DHT22;11481;53.694;9.910;2022-10-26T05:33:01;10.70;99.90
22629;DHT22;11481;53.694;9.910;2022-10-26T05:35:32;10.70;99.90
22629;DHT22;11481;53.694;9.910;2022-10-26T05:37:59;10.70;99.90
22629;DHT22;11481;53.694;9.910;2022-10-26T05:40:33;10.70;99.90
22629;DHT22;11481;53.694;9.910;2022-10-26T05:43:00;10.70;99.90
22629;DHT22;11481;53.694;9.910;2022-10-26T05:45:27;10.70;99.90
22629;DHT22;11481;53.694;9.910;2022-10-26T05:47:54;10.70;99.90
22629;DHT22;11481;53.694;9.910;2022-10-26T05:50:27;10.70;99.90
22629;DHT22;11481;53.694;9.910;2022-10-26T05:52:53;10.60;99.90
22629;DHT22;11481;53.694;9.910;2022-10-26T05:55:21;10.70;99.90
22629;DHT22;11481;53.694;9.910;2022-10-26T05:57:48;10.60;99.90
22629;DHT22;11481;53.694;9.910;2022-10-26T06:00:21;10.60;99.90
22629;DHT22;11481;53.694;9.910;2022-10-26T06:03:05;10.60;99.90
22629;DHT22;11481;53.694;9.910;2022-10-26T06:05:56;10.60;99.90
22629;DHT22;11481;53.694;9.910;2022-10-26T06:08:25;10.60;99.90
22629;DHT22;11481;53.694;9.910;2022-10-26T06:10:52;10.60;99.90
22629;DHT22;11481;53.694;9.910;2022-10-26T06:13:20;10.60;99.90
22629;DHT22;11481;53.694;9.910;2022-10-26T06:18:30;10.60;99.90
22629;DHT22;11481;53.694;9.910;2022-10-26T06:21:22;10.50;99.90
22629;DHT22;11481;53.694;9.910;2022-10-26T06:24:21;10.50;99.90
22629;DHT22;11481;53.694;9.910;2022-10-26T06:29:55;10.60;99.90
22629;DHT22;11481;53.694;9.910;2022-10-26T06:32:27;10.60;99.90
22629;DHT22;11481;53.694;9.910;2022-10-26T06:35:18;10.50;99.90
22629;DHT22;11481;53.694;9.910;2022-10-26T06:37:46;10.50;99.90
22629;DHT22;11481;53.694;9.910;2022-10-26T06:40:17;10.50;99.90
22629;DHT22;11481;53.694;9.910;2022-10-26T06:42:44;10.50;99.90
22629;DHT22;11481;53.694;9.910;2022-10-26T06:45:13;10.60;99.90
22629;DHT22;11481;53.694;9.910;2022-10-26T06:47:59;10.60;99.90
22629;DHT22;11481;53.694;9.910;2022-10-26T06:50:37;10.60;99.90
22629;DHT22;11481;53.694;9.910;2022-10-26T06:55:58;10.60;99.90
22629;DHT22;11481;53.694;9.910;2022-10-26T06:58:29;10.60;99.90
22629;DHT22;11481;53.694;9.910;2022-10-26T07:00:58;10.60;99.90
22629;DHT22;11481;53.694;9.910;2022-10-26T07:03:25;10.60;99.90
22629;DHT22;11481;53.694;9.910;2022-10-26T07:05:52;10.70;99.90
22629;DHT22;11481;53.694;9.910;2022-10-26T07:08:18;10.70;99.90
22629;DHT22;11481;53.694;9.910;2022-10-26T07:11:09;10.70;99.90
22629;DHT22;11481;53.694;9.910;2022-10-26T07:13:36;10.80;99.90
22629;DHT22;11481;53.694;9.910;2022-10-26T07:16:04;10.80;99.90
22629;DHT22;11481;53.694;9.910;2022-10-26T07:18:31;10.80;99.90
22629;DHT22;11481;53.694;9.910;2022-10-26T07:20:58;10.90;99.90
22629;DHT22;11481;53.694;9.910;2022-10-26T07:23:27;10.90;99.90
22629;DHT22;11481;53.694;9.910;2022-10-26T07:25:53;11.00;99.90
22629;DHT22;11481;53.694;9.910;2022-10-26T07:28:21;11.00;99.90
22629;DHT22;11481;53.694;9.910;2022-10-26T07:30:48;11.10;99.90
22629;DHT22;11481;53.694;9.910;2022-10-26T07:33:21;11.10;99.90
22629;DHT22;11481;53.694;9.910;2022-10-26T07:35:47;11.10;99.90
22629;DHT22;11481;53.694;9.910;2022-10-26T07:38:14;11.20;99.90
22629;DHT22;11481;53.694;9.910;2022-10-26T07:40:41;11.20;99.90
22629;DHT22;11481;53.694;9.910;2022-10-26T07:43:08;11.30;99.90
22629;DHT22;11481;53.694;9.910;2022-10-26T07:45:34;11.30;99.90
22629;DHT22;11481;53.694;9.910;2022-10-26T07:48:02;11.30;99.90
22629;DHT22;11481;53.694;9.910;2022-10-26T07:50:28;11.40;99.90
22629;DHT22;11481;53.694;9.910;2022-10-26T07:52:57;11.50;99.90
22629;DHT22;11481;53.694;9.910;2022-10-26T07:55:24;11.50;99.90
22629;DHT22;11481;53.694;9.910;2022-10-26T07:57:53;11.60;99.90
22629;DHT22;11481;53.694;9.910;2022-10-26T08:00:21;11.70;99.90
22629;DHT22;11481;53.694;9.910;2022-10-26T08:03:12;11.70;99.90
22629;DHT22;11481;53.694;9.910;2022-10-26T08:05:38;11.70;99.90
22629;DHT22;11481;53.694;9.910;2022-10-26T08:08:05;11.80;99.90
22629;DHT22;11481;53.694;9.910;2022-10-26T08:10:31;11.90;99.90
22629;DHT22;11481;53.694;9.910;2022-10-26T08:12:58;11.90;99.90
22629;DHT22;11481;53.694;9.910;2022-10-26T08:15:24;12.00;99.90
22629;DHT22;11481;53.694;9.910;2022-10-26T08:17:51;12.00;99.90
22629;DHT22;11481;53.694;9.910;2022-10-26T08:20:18;12.20;99.90
22629;DHT22;11481;53.694;9.910;2022-10-26T08:22:44;12.20;99.90
22629;DHT22;11481;53.694;9.910;2022-10-26T08:25:11;12.30;99.90
22629;DHT22;11481;53.694;9.910;2022-10-26T08:27:43;12.40;99.90
22629;DHT22;11481;53.694;9.910;2022-10-26T08:30:09;12.40;99.90
22629;DHT22;11481;53.694;9.910;2022-10-26T08:32:36;12.50;99.90
22629;DHT22;11481;53.694;9.910;2022-10-26T08:35:03;12.60;99.90
22629;DHT22;11481;53.694;9.910;2022-10-26T08:37:29;12.60;99.90
22629;DHT22;11481;53.694;9.910;2022-10-26T08:39:56;12.60;99.90
22629;DHT22;11481;53.694;9.910;2022-10-26T08:42:49;12.70;99.90
22629;DHT22;11481;53.694;9.910;2022-10-26T08:45:31;12.80;99.90
22629;DHT22;11481;53.694;9.910;2022-10-26T08:48:05;12.90;99.90
22629;DHT22;11481;53.694;9.910;2022-10-26T08:50:40;12.80;99.90
22629;DHT22;11481;53.694;9.910;2022-10-26T08:56:12;12.90;99.90
22629;DHT22;11481;53.694;9.910;2022-10-26T08:58:55;12.90;99.90
22629;DHT22;11481;53.694;9.910;2022-10-26T09:01:22;12.90;99.90
22629;DHT22;11481;53.694;9.910;2022-10-26T09:03:52;13.00;99.90
22629;DHT22;11481;53.694;9.910;2022-10-26T09:06:41;13.20;99.90
22629;DHT22;11481;53.694;9.910;2022-10-26T09:12:07;13.40;99.90
22629;DHT22;11481;53.694;9.910;2022-10-26T09:17:35;13.50;99.90
22629;DHT22;11481;53.694;9.910;2022-10-26T09:23:37;13.70;99.90
22629;DHT22;11481;53.694;9.910;2022-10-26T09:26:13;13.90;99.90
22629;DHT22;11481;53.694;9.910;2022-10-26T09:28:40;13.90;99.90
22629;DHT22;11481;53.694;9.910;2022-10-26T09:31:15;13.90;99.90
22629;DHT22;11481;53.694;9.910;2022-10-26T09:33:42;14.00;99.90
22629;DHT22;11481;53.694;9.910;2022-10-26T09:36:20;14.00;99.90
22629;DHT22;11481;53.694;9.910;2022-10-26T09:39:12;14.10;99.90
22629;DHT22;11481;53.694;9.910;2022-10-26T09:41:49;14.20;99.90
22629;DHT22;11481;53.694;9.910;2022-10-26T09:44:28;14.10;99.90
22629;DHT22;11481;53.694;9.910;2022-10-26T09:47:01;14.30;99.90
22629;DHT22;11481;53.694;9.910;2022-10-26T09:49:42;14.40;99.90
22629;DHT22;11481;53.694;9.910;2022-10-26T09:52:10;14.50;99.90
22629;DHT22;11481;53.694;9.910;2022-10-26T09:54:41;14.60;99.90
22629;DHT22;11481;53.694;9.910;2022-10-26T09:57:09;14.70;99.90
22629;DHT22;11481;53.694;9.910;2022-10-26T09:59:39;14.70;99.90
22629;DHT22;11481;53.694;9.910;2022-10-26T10:02:41;14.70;99.90
22629;DHT22;11481;53.694;9.910;2022-10-26T10:05:32;14.80;99.90
22629;DHT22;11481;53.694;9.910;2022-10-26T10:08:23;14.80;99.90
22629;DHT22;11481;53.694;9.910;2022-10-26T10:13:24;15.00;99.90
22629;DHT22;11481;53.694;9.910;2022-10-26T10:15:53;15.10;99.90
22629;DHT22;11481;53.694;9.910;2022-10-26T10:18:21;15.10;99.90
22629;DHT22;11481;53.694;9.910;2022-10-26T10:20:55;15.10;99.90
22629;DHT22;11481;53.694;9.910;2022-10-26T10:23:35;15.10;99.90
22629;DHT22;11481;53.694;9.910;2022-10-26T10:26:09;15.10;99.90
22629;DHT22;11481;53.694;9.910;2022-10-26T10:28:37;15.20;99.90
22629;DHT22;11481;53.694;9.910;2022-10-26T10:31:21;15.40;99.90
22629;DHT22;11481;53.694;9.910;2022-10-26T10:33:48;15.50;99.90
22629;DHT22;11481;53.694;9.910;2022-10-26T10:36:19;15.50;99.90
22629;DHT22;11481;53.694;9.910;2022-10-26T10:38:49;15.50;99.90
22629;DHT22;11481;53.694;9.910;2022-10-26T10:41:27;15.60;99.90
22629;DHT22;11481;53.694;9.910;2022-10-26T10:44:11;15.80;99.90
22629;DHT22;11481;53.694;9.910;2022-10-26T10:46:41;16.00;99.90
22629;DHT22;11481;53.694;9.910;2022-10-26T10:49:25;16.00;99.90
22629;DHT22;11481;53.694;9.910;2022-10-26T10:51:54;15.90;99.90
22629;DHT22;11481;53.694;9.910;2022-10-26T10:57:02;16.10;99.90
22629;DHT22;11481;53.694;9.910;2022-10-26T10:59:42;16.40;99.90
22629;DHT22;11481;53.694;9.910;2022-10-26T11:10:50;16.60;99.90
22629;DHT22;11481;53.694;9.910;2022-10-26T11:13:33;16.80;99.90
22629;DHT22;11481;53.694;9.910;2022-10-26T11:16:04;16.90;99.90
22629;DHT22;11481;53.694;9.910;2022-10-26T11:18:48;16.90;99.90
22629;DHT22;11481;53.694;9.910;2022-10-26T11:21:29;16.90;99.90
22629;DHT22;11481;53.694;9.910;2022-10-26T11:24:29;17.00;99.90
22629;DHT22;11481;53.694;9.910;2022-10-26T11:27:13;17.10;99.90
22629;DHT22;11481;53.694;9.910;2022-10-26T11:29:50;17.20;99.90
22629;DHT22;11481;53.694;9.910;2022-10-26T11:32:28;17.30;99.90
22629;DHT22;11481;53.694;9.910;2022-10-26T11:38:00;17.50;99.90
22629;DHT22;11481;53.694;9.910;2022-10-26T11:46:11;17.70;99.90
22629;DHT22;11481;53.694;9.910;2022-10-26T11:49:13;17.80;99.90
22629;DHT22;11481;53.694;9.910;2022-10-26T11:51:52;17.80;99.90
22629;DHT22;11481;53.694;9.910;2022-10-26T11:54:27;17.90;99.90
22629;DHT22;11481;53.694;9.910;2022-10-26T11:56:56;18.10;99.90
22629;DHT22;11481;53.694;9.910;2022-10-26T11:59:25;18.20;99.90
22629;DHT22;11481;53.694;9.910;2022-10-26T12:02:20;18.20;99.90
22629;DHT22;11481;53.694;9.910;2022-10-26T12:04:56;18.30;99.90
22629;DHT22;11481;53.694;9.910;2022-10-26T12:07:29;18.40;99.90
22629;DHT22;11481;53.694;9.910;2022-10-26T12:09:56;18.50;99.90
22629;DHT22;11481;53.694;9.910;2022-10-26T12:12:37;18.50;99.90
22629;DHT22;11481;53.694;9.910;2022-10-26T12:17:51;18.70;99.90
22629;DHT22;11481;53.694;9.910;2022-10-26T12:23:08;18.90;99.90
22629;DHT22;11481;53.694;9.910;2022-10-26T12:25:36;19.00;99.90
22629;DHT22;11481;53.694;9.910;2022-10-26T12:28:02;19.00;99.90
22629;DHT22;11481;53.694;9.910;2022-10-26T12:30:33;19.10;99.90
22629;DHT22;11481;53.694;9.910;2022-10-26T12:33:30;19.20;99.90
22629;DHT22;11481;53.694;9.910;2022-10-26T12:35:56;19.30;99.90
22629;DHT22;11481;53.694;9.910;2022-10-26T12:43:33;19.80;99.90
22629;DHT22;11481;53.694;9.910;2022-10-26T12:48:44;19.90;99.90
22629;DHT22;11481;53.694;9.910;2022-10-26T12:56:49;20.10;99.90
22629;DHT22;11481;53.694;9.910;2022-10-26T12:59:19;20.10;99.90
22629;DHT22;11481;53.694;9.910;2022-10-26T13:07:36;20.30;99.90
22629;DHT22;11481;53.694;9.910;2022-10-26T13:10:15;20.40;99.90
22629;DHT22;11481;53.694;9.910;2022-10-26T13:12:49;20.40;99.90
22629;DHT22;11481;53.694;9.910;2022-10-26T13:18:17;20.50;99.90
22629;DHT22;11481;53.694;9.910;2022-10-26T13:21:07;20.50;99.90
22629;DHT22;11481;53.694;9.910;2022-10-26T13:23:37;20.50;99.90
22629;DHT22;11481;53.694;9.910;2022-10-26T13:26:19;20.50;99.90
22629;DHT22;11481;53.694;9.910;2022-10-26T13:28:52;20.60;99.90
22629;DHT22;11481;53.694;9.910;2022-10-26T13:34:04;20.80;99.90
22629;DHT22;11481;53.694;9.910;2022-10-26T13:36:50;20.90;99.90
22629;DHT22;11481;53.694;9.910;2022-10-26T13:39:24;20.70;99.90
22629;DHT22;11481;53.694;9.910;2022-10-26T13:41:53;20.70;99.90
22629;DHT22;11481;53.694;9.910;2022-10-26T13:47:48;20.80;99.90
22629;DHT22;11481;53.694;9.910;2022-10-26T13:50:21;20.80;99.90
22629;DHT22;11481;53.694;9.910;2022-10-26T13:56:02;20.70;99.90
22629;DHT22;11481;53.694;9.910;2022-10-26T13:58:40;20.70;99.90
22629;DHT22;11481;53.694;9.910;2022-10-26T14:03:36;20.60;99.90
22629;DHT22;11481;53.694;9.910;2022-10-26T14:06:10;20.60;99.90
22629;DHT22;11481;53.694;9.910;2022-10-26T14:08:40;20.60;99.90
22629;DHT22;11481;53.694;9.910;2022-10-26T14:11:11;20.60;99.90
22629;DHT22;11481;53.694;9.910;2022-10-26T14:13:38;20.50;99.90
22629;DHT22;11481;53.694;9.910;2022-10-26T14:16:09;20.40;99.90
22629;DHT22;11481;53.694;9.910;2022-10-26T14:18:41;20.40;99.90
22629;DHT22;11481;53.694;9.910;2022-10-26T14:21:15;20.40;99.90
22629;DHT22;11481;53.694;9.910;2022-10-26T14:23:49;20.50;99.90
22629;DHT22;11481;53.694;9.910;2022-10-26T14:26:40;20.50;99.90
22629;DHT22;11481;53.694;9.910;2022-10-26T14:29:16;20.40;99.90
22629;DHT22;11481;53.694;9.910;2022-10-26T14:31:43;20.50;99.90
22629;DHT22;11481;53.694;9.910;2022-10-26T14:34:11;20.60;99.90
22629;DHT22;11481;53.694;9.910;2022-10-26T14:37:00;20.60;99.90
22629;DHT22;11481;53.694;9.910;2022-10-26T14:39:38;20.70;99.90
22629;DHT22;11481;53.694;9.910;2022-10-26T14:44:46;20.80;99.90
22629;DHT22;11481;53.694;9.910;2022-10-26T14:47:24;20.80;99.90
22629;DHT22;11481;53.694;9.910;2022-10-26T14:49:52;20.70;99.90
22629;DHT22;11481;53.694;9.910;2022-10-26T14:52:29;20.80;99.90
22629;DHT22;11481;53.694;9.910;2022-10-26T14:55:15;20.80;99.90
22629;DHT22;11481;53.694;9.910;2022-10-26T14:57:45;20.80;99.90
22629;DHT22;11481;53.694;9.910;2022-10-26T15:00:21;20.80;99.90
22629;DHT22;11481;53.694;9.910;2022-10-26T15:02:52;20.90;99.90
22629;DHT22;11481;53.694;9.910;2022-10-26T15:07:50;20.90;99.90
22629;DHT22;11481;53.694;9.910;2022-10-26T15:13:31;21.00;99.90
22629;DHT22;11481;53.694;9.910;2022-10-26T15:16:18;21.10;99.90
22629;DHT22;11481;53.694;9.910;2022-10-26T15:18:52;21.00;99.90
22629;DHT22;11481;53.694;9.910;2022-10-26T15:21:31;21.00;99.90
22629;DHT22;11481;53.694;9.910;2022-10-26T15:23:59;20.90;99.90
22629;DHT22;11481;53.694;9.910;2022-10-26T15:26:31;21.00;99.90
22629;DHT22;11481;53.694;9.910;2022-10-26T15:29:02;20.90;99.90
22629;DHT22;11481;53.694;9.910;2022-10-26T15:31:31;20.90;99.90
22629;DHT22;11481;53.694;9.910;2022-10-26T15:36:29;20.80;99.90
22629;DHT22;11481;53.694;9.910;2022-10-26T15:38:57;20.80;99.90
22629;DHT22;11481;53.694;9.910;2022-10-26T15:41:25;20.80;99.90
22629;DHT22;11481;53.694;9.910;2022-10-26T15:43:54;20.70;99.90
22629;DHT22;11481;53.694;9.910;2022-10-26T15:46:28;20.60;99.90
22629;DHT22;11481;53.694;9.910;2022-10-26T15:49:00;20.50;99.90
22629;DHT22;11481;53.694;9.910;2022-10-26T15:51:28;20.30;99.90
22629;DHT22;11481;53.694;9.910;2022-10-26T15:54:01;20.20;99.90
22629;DHT22;11481;53.694;9.910;2022-10-26T15:56:28;20.10;99.90
22629;DHT22;11481;53.694;9.910;2022-10-26T15:58:56;20.00;99.90
22629;DHT22;11481;53.694;9.910;2022-10-26T16:01:24;20.00;99.90
22629;DHT22;11481;53.694;9.910;2022-10-26T16:03:52;20.00;99.90
22629;DHT22;11481;53.694;9.910;2022-10-26T16:06:26;20.00;99.90
22629;DHT22;11481;53.694;9.910;2022-10-26T16:08:55;20.00;99.90
22629;DHT22;11481;53.694;9.910;2022-10-26T16:11:22;19.80;99.90
22629;DHT22;11481;53.694;9.910;2022-10-26T16:13:48;19.70;99.90
22629;DHT22;11481;53.694;9.910;2022-10-26T16:16:16;19.70;99.90
22629;DHT22;11481;53.694;9.910;2022-10-26T16:18:44;19.60;99.90
22629;DHT22;11481;53.694;9.910;2022-10-26T16:21:16;19.40;99.90
22629;DHT22;11481;53.694;9.910;2022-10-26T16:23:48;19.30;99.90
22629;DHT22;11481;53.694;9.910;2022-10-26T16:26:15;19.20;99.90
22629;DHT22;11481;53.694;9.910;2022-10-26T16:28:42;19.20;99.90
22629;DHT22;11481;53.694;9.910;2022-10-26T16:31:12;19.10;99.90
22629;DHT22;11481;53.694;9.910;2022-10-26T16:33:38;19.10;99.90
22629;DHT22;11481;53.694;9.910;2022-10-26T16:36:06;19.10;99.90
22629;DHT22;11481;53.694;9.910;2022-10-26T16:38:33;19.10;99.90
22629;DHT22;11481;53.694;9.910;2022-10-26T16:41:04;19.00;99.90
22629;DHT22;11481;53.694;9.910;2022-10-26T16:43:32;18.90;99.90
22629;DHT22;11481;53.694;9.910;2022-10-26T16:46:07;18.90;99.90
22629;DHT22;11481;53.694;9.910;2022-10-26T16:48:36;18.80;99.90
22629;DHT22;11481;53.694;9.910;2022-10-26T16:51:13;18.90;99.90
22629;DHT22;11481;53.694;9.910;2022-10-26T16:53:41;18.80;99.90
22629;DHT22;11481;53.694;9.910;2022-10-26T16:56:14;18.70;99.90
22629;DHT22;11481;53.694;9.910;2022-10-26T16:58:41;18.70;99.90
22629;DHT22;11481;53.694;9.910;2022-10-26T17:01:09;18.60;99.90
22629;DHT22;11481;53.694;9.910;2022-10-26T17:03:38;18.70;99.90
22629;DHT22;11481;53.694;9.910;2022-10-26T17:06:06;18.60;99.90
22629;DHT22;11481;53.694;9.910;2022-10-26T17:08:34;18.50;99.90
22629;DHT22;11481;53.694;9.910;2022-10-26T17:11:07;18.50;99.90
22629;DHT22;11481;53.694;9.910;2022-10-26T17:13:38;18.40;99.90
22629;DHT22;11481;53.694;9.910;2022-10-26T17:16:08;18.30;99.90
22629;DHT22;11481;53.694;9.910;2022-10-26T17:18:35;18.30;99.90
22629;DHT22;11481;53.694;9.910;2022-10-26T17:21:02;18.30;99.90
22629;DHT22;11481;53.694;9.910;2022-10-26T17:23:28;18.30;99.90
22629;DHT22;11481;53.694;9.910;2022-10-26T17:26:00;18.30;99.90
22629;DHT22;11481;53.694;9.910;2022-10-26T17:28:27;18.30;99.90
22629;DHT22;11481;53.694;9.910;2022-10-26T17:31:34;18.30;99.90
22629;DHT22;11481;53.694;9.910;2022-10-26T17:33:55;18.20;99.90
22629;DHT22;11481;53.694;9.910;2022-10-26T17:36:24;18.10;99.90
22629;DHT22;11481;53.694;9.910;2022-10-26T17:38:52;18.10;99.90
22629;DHT22;11481;53.694;9.910;2022-10-26T17:41:21;18.10;99.90
22629;DHT22;11481;53.694;9.910;2022-10-26T17:43:48;18.10;99.90
22629;DHT22;11481;53.694;9.910;2022-10-26T17:46:18;18.10;99.90
22629;DHT22;11481;53.694;9.910;2022-10-26T17:48:46;18.20;99.90
22629;DHT22;11481;53.694;9.910;2022-10-26T17:51:15;18.20;99.90
22629;DHT22;11481;53.694;9.910;2022-10-26T17:53:44;18.20;99.90
22629;DHT22;11481;53.694;9.910;2022-10-26T17:58:40;18.20;99.90
22629;DHT22;11481;53.694;9.910;2022-10-26T18:01:09;18.10;99.90